sensor_id;sensor_type;location;lat;lon;timestamp;P1;durP1;ratioP1;P2;durP2;ratioP2
23129;SDS011;11734;51.046;13.778;2024-02-04T00:00:48;2.17;;;1.97;;
23129;SDS011;11734;51.046;13.778;2024-02-04T00:03:16;2.47;;;2.20;;
23129;SDS011;11734;51.046;13.778;2024-02-04T00:05:46;2.27;;;2.07;;
23129;SDS011;11734;51.046;13.778;2024-02-04T00:08:14;2.23;;;2.10;;
23129;SDS011;11734;51.046;13.778;2024-02-04T00:10:44;2.10;;;1.90;;
23129;SDS011;11734;51.046;13.778;2024-02-04T00:13:11;2.23;;;2.03;;
23129;SDS011;11734;51.046;13.778;2024-02-04T00:15:39;2.50;;;2.30;;
23129;SDS011;11734;51.046;13.778;2024-02-04T00:18:07;2.07;;;1.97;;
23129;SDS011;11734;51.046;13.778;2024-02-04T00:20:35;2.00;;;1.90;;
23129;SDS011;11734;51.046;13.778;2024-02-04T00:23:03;2.10;;;2.00;;
23129;SDS011;11734;51.046;13.778;2024-02-04T00:25:31;2.53;;;2.20;;
23129;SDS011;11734;51.046;13.778;2024-02-04T00:27:59;1.90;;;1.80;;
23129;SDS011;11734;51.046;13.778;2024-02-04T00:30:26;1.90;;;1.80;;
23129;SDS011;11734;51.046;13.778;2024-02-04T00:32:54;2.10;;;2.00;;
23129;SDS011;11734;51.046;13.778;2024-02-04T00:35:22;1.90;;;1.70;;
23129;SDS011;11734;51.046;13.778;2024-02-04T00:37:50;2.20;;;2.00;;
23129;SDS011;11734;51.046;13.778;2024-02-04T00:40:18;1.90;;;1.80;;
23129;SDS011;11734;51.046;13.778;2024-02-04T00:42:46;2.23;;;2.00;;
23129;SDS011;11734;51.046;13.778;2024-02-04T00:45:14;2.23;;;2.03;;
23129;SDS011;11734;51.046;13.778;2024-02-04T00:47:43;2.20;;;2.10;;
23129;SDS011;11734;51.046;13.778;2024-02-04T00:50:11;2.37;;;2.17;;
23129;SDS011;11734;51.046;13.778;2024-02-04T00:52:39;2.63;;;2.07;;
23129;SDS011;11734;51.046;13.778;2024-02-04T00:55:06;2.37;;;1.97;;
23129;SDS011;11734;51.046;13.778;2024-02-04T00:57:34;2.10;;;1.97;;
23129;SDS011;11734;51.046;13.778;2024-02-04T01:00:02;2.40;;;2.20;;
23129;SDS011;11734;51.046;13.778;2024-02-04T01:02:31;3.50;;;2.00;;
23129;SDS011;11734;51.046;13.778;2024-02-04T01:04:59;2.40;;;2.20;;
23129;SDS011;11734;51.046;13.778;2024-02-04T01:07:26;1.97;;;1.87;;
23129;SDS011;11734;51.046;13.778;2024-02-04T01:09:53;2.00;;;1.77;;
23129;SDS011;11734;51.046;13.778;2024-02-04T01:12:21;1.83;;;1.73;;
23129;SDS011;11734;51.046;13.778;2024-02-04T01:14:49;2.13;;;1.93;;
23129;SDS011;11734;51.046;13.778;2024-02-04T01:17:16;2.10;;;1.90;;
23129;SDS011;11734;51.046;13.778;2024-02-04T01:19:44;1.87;;;1.77;;
23129;SDS011;11734;51.046;13.778;2024-02-04T01:22:12;1.77;;;1.67;;
23129;SDS011;11734;51.046;13.778;2024-02-04T01:24:40;1.57;;;1.47;;
23129;SDS011;11734;51.046;13.778;2024-02-04T01:27:07;1.90;;;1.73;;
23129;SDS011;11734;51.046;13.778;2024-02-04T01:29:35;2.30;;;2.10;;
23129;SDS011;11734;51.046;13.778;2024-02-04T01:32:02;2.00;;;1.90;;
23129;SDS011;11734;51.046;13.778;2024-02-04T01:34:30;2.03;;;1.90;;
23129;SDS011;11734;51.046;13.778;2024-02-04T01:36:58;2.73;;;1.80;;
23129;SDS011;11734;51.046;13.778;2024-02-04T01:39:26;2.00;;;1.60;;
23129;SDS011;11734;51.046;13.778;2024-02-04T01:41:53;2.07;;;1.87;;
23129;SDS011;11734;51.046;13.778;2024-02-04T01:44:21;3.43;;;1.90;;
23129;SDS011;11734;51.046;13.778;2024-02-04T01:46:50;1.83;;;1.73;;
23129;SDS011;11734;51.046;13.778;2024-02-04T01:49:17;1.97;;;1.73;;
23129;SDS011;11734;51.046;13.778;2024-02-04T01:51:45;3.37;;;1.80;;
23129;SDS011;11734;51.046;13.778;2024-02-04T01:54:13;2.00;;;1.80;;
23129;SDS011;11734;51.046;13.778;2024-02-04T01:56:41;1.97;;;1.77;;
23129;SDS011;11734;51.046;13.778;2024-02-04T01:59:09;2.00;;;1.90;;
23129;SDS011;11734;51.046;13.778;2024-02-04T02:01:39;3.10;;;1.87;;
23129;SDS011;11734;51.046;13.778;2024-02-04T02:04:09;1.63;;;1.53;;
23129;SDS011;11734;51.046;13.778;2024-02-04T02:06:37;1.70;;;1.60;;
23129;SDS011;11734;51.046;13.778;2024-02-04T02:09:08;2.17;;;1.97;;
23129;SDS011;11734;51.046;13.778;2024-02-04T02:11:43;2.60;;;1.80;;
23129;SDS011;11734;51.046;13.778;2024-02-04T02:14:35;1.77;;;1.67;;
23129;SDS011;11734;51.046;13.778;2024-02-04T02:17:10;2.03;;;1.80;;
23129;SDS011;11734;51.046;13.778;2024-02-04T02:20:04;1.93;;;1.77;;
23129;SDS011;11734;51.046;13.778;2024-02-04T02:22:42;1.90;;;1.80;;
23129;SDS011;11734;51.046;13.778;2024-02-04T02:25:19;2.10;;;1.90;;
23129;SDS011;11734;51.046;13.778;2024-02-04T02:27:48;3.37;;;1.87;;
23129;SDS011;11734;51.046;13.778;2024-02-04T02:30:17;2.80;;;2.07;;
23129;SDS011;11734;51.046;13.778;2024-02-04T02:32:45;2.10;;;1.90;;
23129;SDS011;11734;51.046;13.778;2024-02-04T02:35:14;2.20;;;2.00;;
23129;SDS011;11734;51.046;13.778;2024-02-04T02:37:44;2.13;;;2.03;;
23129;SDS011;11734;51.046;13.778;2024-02-04T02:40:22;2.33;;;2.10;;
23129;SDS011;11734;51.046;13.778;2024-02-04T02:43:06;3.07;;;2.37;;
23129;SDS011;11734;51.046;13.778;2024-02-04T02:45:37;2.53;;;2.20;;
23129;SDS011;11734;51.046;13.778;2024-02-04T02:48:09;2.90;;;2.53;;
23129;SDS011;11734;51.046;13.778;2024-02-04T02:50:38;3.20;;;2.90;;
23129;SDS011;11734;51.046;13.778;2024-02-04T02:53:06;2.80;;;2.43;;
23129;SDS011;11734;51.046;13.778;2024-02-04T02:55:33;3.00;;;2.77;;
23129;SDS011;11734;51.046;13.778;2024-02-04T02:58:01;3.40;;;3.03;;
23129;SDS011;11734;51.046;13.778;2024-02-04T03:00:28;3.23;;;2.93;;
23129;SDS011;11734;51.046;13.778;2024-02-04T03:02:56;4.47;;;3.40;;
23129;SDS011;11734;51.046;13.778;2024-02-04T03:05:24;4.40;;;3.40;;
23129;SDS011;11734;51.046;13.778;2024-02-04T03:07:51;3.80;;;3.40;;
23129;SDS011;11734;51.046;13.778;2024-02-04T03:10:19;4.77;;;3.47;;
23129;SDS011;11734;51.046;13.778;2024-02-04T03:12:46;5.33;;;3.53;;
23129;SDS011;11734;51.046;13.778;2024-02-04T03:15:14;3.93;;;3.50;;
23129;SDS011;11734;51.046;13.778;2024-02-04T03:17:44;4.33;;;3.80;;
23129;SDS011;11734;51.046;13.778;2024-02-04T03:20:12;4.10;;;3.40;;
23129;SDS011;11734;51.046;13.778;2024-02-04T03:22:40;4.03;;;3.30;;
23129;SDS011;11734;51.046;13.778;2024-02-04T03:25:08;3.73;;;3.27;;
23129;SDS011;11734;51.046;13.778;2024-02-04T03:27:35;3.97;;;3.17;;
23129;SDS011;11734;51.046;13.778;2024-02-04T03:30:03;4.20;;;3.57;;
23129;SDS011;11734;51.046;13.778;2024-02-04T03:32:32;2.83;;;2.33;;
23129;SDS011;11734;51.046;13.778;2024-02-04T03:35:01;3.83;;;2.60;;
23129;SDS011;11734;51.046;13.778;2024-02-04T03:37:30;2.90;;;2.40;;
23129;SDS011;11734;51.046;13.778;2024-02-04T03:39:57;2.67;;;2.20;;
23129;SDS011;11734;51.046;13.778;2024-02-04T03:42:25;2.30;;;1.93;;
23129;SDS011;11734;51.046;13.778;2024-02-04T03:44:53;2.60;;;2.40;;
23129;SDS011;11734;51.046;13.778;2024-02-04T03:47:21;2.60;;;2.40;;
23129;SDS011;11734;51.046;13.778;2024-02-04T03:49:48;3.80;;;2.47;;
23129;SDS011;11734;51.046;13.778;2024-02-04T03:52:16;2.50;;;2.30;;
23129;SDS011;11734;51.046;13.778;2024-02-04T03:54:44;2.47;;;2.10;;
23129;SDS011;11734;51.046;13.778;2024-02-04T03:57:11;2.60;;;2.17;;
23129;SDS011;11734;51.046;13.778;2024-02-04T03:59:39;1.90;;;1.80;;
23129;SDS011;11734;51.046;13.778;2024-02-04T04:02:06;2.10;;;1.90;;
23129;SDS011;11734;51.046;13.778;2024-02-04T04:04:34;2.10;;;1.90;;
23129;SDS011;11734;51.046;13.778;2024-02-04T04:07:01;2.30;;;2.10;;
23129;SDS011;11734;51.046;13.778;2024-02-04T04:09:29;3.07;;;2.03;;
23129;SDS011;11734;51.046;13.778;2024-02-04T04:11:57;2.50;;;2.10;;
23129;SDS011;11734;51.046;13.778;2024-02-04T04:14:24;2.30;;;2.10;;
23129;SDS011;11734;51.046;13.778;2024-02-04T04:16:52;2.73;;;2.47;;
23129;SDS011;11734;51.046;13.778;2024-02-04T04:19:19;2.50;;;2.27;;
23129;SDS011;11734;51.046;13.778;2024-02-04T04:21:47;2.93;;;2.70;;
23129;SDS011;11734;51.046;13.778;2024-02-04T04:24:14;2.93;;;2.50;;
23129;SDS011;11734;51.046;13.778;2024-02-04T04:26:46;3.10;;;2.80;;
23129;SDS011;11734;51.046;13.778;2024-02-04T04:29:13;3.67;;;2.97;;
23129;SDS011;11734;51.046;13.778;2024-02-04T04:31:41;2.97;;;2.70;;
23129;SDS011;11734;51.046;13.778;2024-02-04T04:34:08;3.43;;;2.90;;
23129;SDS011;11734;51.046;13.778;2024-02-04T04:36:36;3.27;;;2.87;;
23129;SDS011;11734;51.046;13.778;2024-02-04T04:39:03;3.83;;;2.70;;
23129;SDS011;11734;51.046;13.778;2024-02-04T04:41:31;3.63;;;2.93;;
23129;SDS011;11734;51.046;13.778;2024-02-04T04:43:59;5.07;;;3.30;;
23129;SDS011;11734;51.046;13.778;2024-02-04T04:46:26;3.70;;;2.93;;
23129;SDS011;11734;51.046;13.778;2024-02-04T04:48:54;4.07;;;3.03;;
23129;SDS011;11734;51.046;13.778;2024-02-04T04:51:24;2.90;;;2.60;;
23129;SDS011;11734;51.046;13.778;2024-02-04T04:53:53;3.47;;;2.33;;
23129;SDS011;11734;51.046;13.778;2024-02-04T04:56:21;3.27;;;2.63;;
23129;SDS011;11734;51.046;13.778;2024-02-04T04:58:48;3.20;;;2.40;;
23129;SDS011;11734;51.046;13.778;2024-02-04T05:01:17;2.50;;;2.23;;
23129;SDS011;11734;51.046;13.778;2024-02-04T05:03:44;3.50;;;2.43;;
23129;SDS011;11734;51.046;13.778;2024-02-04T05:06:14;2.53;;;2.33;;
23129;SDS011;11734;51.046;13.778;2024-02-04T05:08:42;2.83;;;2.40;;
23129;SDS011;11734;51.046;13.778;2024-02-04T05:11:09;3.63;;;2.30;;
23129;SDS011;11734;51.046;13.778;2024-02-04T05:13:38;2.93;;;2.63;;
23129;SDS011;11734;51.046;13.778;2024-02-04T05:16:06;2.77;;;2.50;;
23129;SDS011;11734;51.046;13.778;2024-02-04T05:18:34;2.60;;;2.40;;
23129;SDS011;11734;51.046;13.778;2024-02-04T05:21:02;2.93;;;2.47;;
23129;SDS011;11734;51.046;13.778;2024-02-04T05:23:30;2.30;;;2.10;;
23129;SDS011;11734;51.046;13.778;2024-02-04T05:26:02;2.70;;;2.50;;
23129;SDS011;11734;51.046;13.778;2024-02-04T05:28:32;2.77;;;2.10;;
23129;SDS011;11734;51.046;13.778;2024-02-04T05:31:03;2.40;;;2.03;;
23129;SDS011;11734;51.046;13.778;2024-02-04T05:33:32;3.13;;;2.27;;
23129;SDS011;11734;51.046;13.778;2024-02-04T05:35:59;2.60;;;1.93;;
23129;SDS011;11734;51.046;13.778;2024-02-04T05:38:27;4.67;;;2.30;;
23129;SDS011;11734;51.046;13.778;2024-02-04T05:40:55;2.50;;;2.30;;
23129;SDS011;11734;51.046;13.778;2024-02-04T05:43:22;2.83;;;2.43;;
23129;SDS011;11734;51.046;13.778;2024-02-04T05:45:50;2.80;;;2.37;;
23129;SDS011;11734;51.046;13.778;2024-02-04T05:48:17;2.83;;;2.33;;
23129;SDS011;11734;51.046;13.778;2024-02-04T05:50:48;2.53;;;2.00;;
23129;SDS011;11734;51.046;13.778;2024-02-04T05:53:16;4.23;;;2.87;;
23129;SDS011;11734;51.046;13.778;2024-02-04T05:55:43;2.83;;;2.30;;
23129;SDS011;11734;51.046;13.778;2024-02-04T05:58:12;3.10;;;2.50;;
23129;SDS011;11734;51.046;13.778;2024-02-04T06:00:40;2.60;;;2.23;;
23129;SDS011;11734;51.046;13.778;2024-02-04T06:03:08;2.80;;;2.23;;
23129;SDS011;11734;51.046;13.778;2024-02-04T06:05:35;2.63;;;2.30;;
23129;SDS011;11734;51.046;13.778;2024-02-04T06:08:03;2.50;;;2.20;;
23129;SDS011;11734;51.046;13.778;2024-02-04T06:10:30;2.77;;;2.47;;
23129;SDS011;11734;51.046;13.778;2024-02-04T06:12:58;2.70;;;2.23;;
23129;SDS011;11734;51.046;13.778;2024-02-04T06:15:25;2.87;;;2.47;;
23129;SDS011;11734;51.046;13.778;2024-02-04T06:17:53;2.83;;;2.27;;
23129;SDS011;11734;51.046;13.778;2024-02-04T06:20:21;3.40;;;2.40;;
23129;SDS011;11734;51.046;13.778;2024-02-04T06:22:48;3.30;;;2.30;;
23129;SDS011;11734;51.046;13.778;2024-02-04T06:25:16;2.90;;;2.60;;
23129;SDS011;11734;51.046;13.778;2024-02-04T06:27:43;2.60;;;2.40;;
23129;SDS011;11734;51.046;13.778;2024-02-04T06:30:11;2.90;;;2.60;;
23129;SDS011;11734;51.046;13.778;2024-02-04T06:32:39;4.10;;;2.60;;
23129;SDS011;11734;51.046;13.778;2024-02-04T06:35:07;2.73;;;2.50;;
23129;SDS011;11734;51.046;13.778;2024-02-04T06:37:34;3.17;;;2.77;;
23129;SDS011;11734;51.046;13.778;2024-02-04T06:40:02;3.00;;;2.63;;
23129;SDS011;11734;51.046;13.778;2024-02-04T06:42:30;2.50;;;2.30;;
23129;SDS011;11734;51.046;13.778;2024-02-04T06:44:58;2.20;;;2.00;;
23129;SDS011;11734;51.046;13.778;2024-02-04T06:47:25;2.20;;;2.00;;
23129;SDS011;11734;51.046;13.778;2024-02-04T06:49:53;2.20;;;1.97;;
23129;SDS011;11734;51.046;13.778;2024-02-04T06:52:21;2.33;;;2.13;;
23129;SDS011;11734;51.046;13.778;2024-02-04T06:54:48;2.90;;;2.07;;
23129;SDS011;11734;51.046;13.778;2024-02-04T06:57:16;2.80;;;2.10;;
23129;SDS011;11734;51.046;13.778;2024-02-04T06:59:44;3.27;;;2.33;;
23129;SDS011;11734;51.046;13.778;2024-02-04T07:02:11;2.97;;;2.10;;
23129;SDS011;11734;51.046;13.778;2024-02-04T07:04:39;2.50;;;2.30;;
23129;SDS011;11734;51.046;13.778;2024-02-04T07:07:07;2.17;;;1.97;;
23129;SDS011;11734;51.046;13.778;2024-02-04T07:09:34;2.20;;;2.00;;
23129;SDS011;11734;51.046;13.778;2024-02-04T07:12:02;2.80;;;2.10;;
23129;SDS011;11734;51.046;13.778;2024-02-04T07:14:29;3.33;;;2.27;;
23129;SDS011;11734;51.046;13.778;2024-02-04T07:16:57;2.20;;;2.00;;
23129;SDS011;11734;51.046;13.778;2024-02-04T07:19:24;2.13;;;1.93;;
23129;SDS011;11734;51.046;13.778;2024-02-04T07:21:52;2.30;;;1.70;;
23129;SDS011;11734;51.046;13.778;2024-02-04T07:24:19;3.03;;;1.70;;
23129;SDS011;11734;51.046;13.778;2024-02-04T07:26:47;2.17;;;1.60;;
23129;SDS011;11734;51.046;13.778;2024-02-04T07:29:15;1.87;;;1.70;;
23129;SDS011;11734;51.046;13.778;2024-02-04T07:31:42;1.70;;;1.60;;
23129;SDS011;11734;51.046;13.778;2024-02-04T07:34:10;1.80;;;1.70;;
23129;SDS011;11734;51.046;13.778;2024-02-04T07:36:38;1.90;;;1.80;;
23129;SDS011;11734;51.046;13.778;2024-02-04T07:39:06;1.50;;;1.40;;
23129;SDS011;11734;51.046;13.778;2024-02-04T07:41:33;1.70;;;1.60;;
23129;SDS011;11734;51.046;13.778;2024-02-04T07:44:01;1.33;;;1.23;;
23129;SDS011;11734;51.046;13.778;2024-02-04T07:46:29;1.60;;;1.50;;
23129;SDS011;11734;51.046;13.778;2024-02-04T07:48:56;2.07;;;1.70;;
23129;SDS011;11734;51.046;13.778;2024-02-04T07:51:24;1.40;;;1.30;;
23129;SDS011;11734;51.046;13.778;2024-02-04T07:53:52;1.40;;;1.30;;
23129;SDS011;11734;51.046;13.778;2024-02-04T07:56:19;1.17;;;1.07;;
23129;SDS011;11734;51.046;13.778;2024-02-04T07:58:46;1.40;;;1.30;;
23129;SDS011;11734;51.046;13.778;2024-02-04T08:01:14;1.13;;;1.10;;
23129;SDS011;11734;51.046;13.778;2024-02-04T08:03:43;1.27;;;1.00;;
23129;SDS011;11734;51.046;13.778;2024-02-04T08:06:13;1.00;;;1.00;;
23129;SDS011;11734;51.046;13.778;2024-02-04T08:08:40;1.27;;;1.17;;
23129;SDS011;11734;51.046;13.778;2024-02-04T08:11:08;0.93;;;0.93;;
23129;SDS011;11734;51.046;13.778;2024-02-04T08:13:36;1.00;;;1.00;;
23129;SDS011;11734;51.046;13.778;2024-02-04T08:16:03;1.27;;;1.17;;
23129;SDS011;11734;51.046;13.778;2024-02-04T08:18:31;1.13;;;1.03;;
23129;SDS011;11734;51.046;13.778;2024-02-04T08:20:59;1.00;;;1.00;;
23129;SDS011;11734;51.046;13.778;2024-02-04T08:23:26;1.10;;;0.93;;
23129;SDS011;11734;51.046;13.778;2024-02-04T08:25:54;0.90;;;0.90;;
23129;SDS011;11734;51.046;13.778;2024-02-04T08:28:23;1.00;;;1.00;;
23129;SDS011;11734;51.046;13.778;2024-02-04T08:30:51;0.90;;;0.90;;
23129;SDS011;11734;51.046;13.778;2024-02-04T08:33:18;0.87;;;0.87;;
23129;SDS011;11734;51.046;13.778;2024-02-04T08:35:47;1.10;;;1.10;;
23129;SDS011;11734;51.046;13.778;2024-02-04T08:38:15;1.03;;;1.03;;
23129;SDS011;11734;51.046;13.778;2024-02-04T08:40:43;0.90;;;0.90;;
23129;SDS011;11734;51.046;13.778;2024-02-04T08:43:10;0.97;;;0.97;;
23129;SDS011;11734;51.046;13.778;2024-02-04T08:45:38;1.13;;;0.93;;
23129;SDS011;11734;51.046;13.778;2024-02-04T08:48:05;0.90;;;0.90;;
23129;SDS011;11734;51.046;13.778;2024-02-04T08:50:33;0.97;;;0.90;;
23129;SDS011;11734;51.046;13.778;2024-02-04T08:53:01;1.27;;;1.00;;
23129;SDS011;11734;51.046;13.778;2024-02-04T08:55:28;1.10;;;1.00;;
23129;SDS011;11734;51.046;13.778;2024-02-04T08:57:56;0.93;;;0.93;;
23129;SDS011;11734;51.046;13.778;2024-02-04T09:00:24;1.33;;;1.27;;
23129;SDS011;11734;51.046;13.778;2024-02-04T09:02:51;0.73;;;0.73;;
23129;SDS011;11734;51.046;13.778;2024-02-04T09:05:19;0.70;;;0.70;;
23129;SDS011;11734;51.046;13.778;2024-02-04T09:07:47;1.10;;;1.10;;
23129;SDS011;11734;51.046;13.778;2024-02-04T09:10:15;0.90;;;0.90;;
23129;SDS011;11734;51.046;13.778;2024-02-04T09:12:43;1.57;;;1.40;;
23129;SDS011;11734;51.046;13.778;2024-02-04T09:15:10;0.90;;;0.90;;
23129;SDS011;11734;51.046;13.778;2024-02-04T09:17:38;0.87;;;0.87;;
23129;SDS011;11734;51.046;13.778;2024-02-04T09:20:06;0.90;;;0.90;;
23129;SDS011;11734;51.046;13.778;2024-02-04T09:22:35;1.10;;;1.10;;
23129;SDS011;11734;51.046;13.778;2024-02-04T09:25:02;1.47;;;1.37;;
23129;SDS011;11734;51.046;13.778;2024-02-04T09:27:30;1.00;;;1.00;;
23129;SDS011;11734;51.046;13.778;2024-02-04T09:29:58;1.23;;;1.20;;
23129;SDS011;11734;51.046;13.778;2024-02-04T09:32:25;1.47;;;1.10;;
23129;SDS011;11734;51.046;13.778;2024-02-04T09:34:53;1.30;;;1.20;;
23129;SDS011;11734;51.046;13.778;2024-02-04T09:37:21;1.30;;;1.20;;
23129;SDS011;11734;51.046;13.778;2024-02-04T09:39:49;1.10;;;1.10;;
23129;SDS011;11734;51.046;13.778;2024-02-04T09:42:20;1.70;;;1.60;;
23129;SDS011;11734;51.046;13.778;2024-02-04T09:44:50;1.97;;;1.20;;
23129;SDS011;11734;51.046;13.778;2024-02-04T09:47:17;1.13;;;1.10;;
23129;SDS011;11734;51.046;13.778;2024-02-04T09:49:45;1.40;;;1.30;;
23129;SDS011;11734;51.046;13.778;2024-02-04T09:52:13;1.10;;;1.10;;
23129;SDS011;11734;51.046;13.778;2024-02-04T09:54:50;1.30;;;1.20;;
23129;SDS011;11734;51.046;13.778;2024-02-04T09:57:26;1.93;;;1.10;;
23129;SDS011;11734;51.046;13.778;2024-02-04T09:59:55;1.40;;;1.30;;
23129;SDS011;11734;51.046;13.778;2024-02-04T10:02:23;1.03;;;1.00;;
23129;SDS011;11734;51.046;13.778;2024-02-04T10:04:51;1.80;;;1.20;;
23129;SDS011;11734;51.046;13.778;2024-02-04T10:07:19;0.97;;;0.97;;
23129;SDS011;11734;51.046;13.778;2024-02-04T10:09:46;1.03;;;1.03;;
23129;SDS011;11734;51.046;13.778;2024-02-04T10:12:14;1.33;;;1.23;;
23129;SDS011;11734;51.046;13.778;2024-02-04T10:14:43;0.87;;;0.87;;
23129;SDS011;11734;51.046;13.778;2024-02-04T10:17:11;1.13;;;1.03;;
23129;SDS011;11734;51.046;13.778;2024-02-04T10:19:41;1.30;;;1.10;;
23129;SDS011;11734;51.046;13.778;2024-02-04T10:22:09;1.00;;;1.00;;
23129;SDS011;11734;51.046;13.778;2024-02-04T10:24:36;1.30;;;1.20;;
23129;SDS011;11734;51.046;13.778;2024-02-04T10:27:04;1.40;;;1.30;;
23129;SDS011;11734;51.046;13.778;2024-02-04T10:29:36;1.50;;;1.40;;
23129;SDS011;11734;51.046;13.778;2024-02-04T10:32:04;1.60;;;1.50;;
23129;SDS011;11734;51.046;13.778;2024-02-04T10:34:36;1.77;;;1.60;;
23129;SDS011;11734;51.046;13.778;2024-02-04T10:37:05;1.50;;;1.40;;
23129;SDS011;11734;51.046;13.778;2024-02-04T10:39:32;2.07;;;1.83;;
23129;SDS011;11734;51.046;13.778;2024-02-04T10:42:01;1.63;;;1.50;;
23129;SDS011;11734;51.046;13.778;2024-02-04T10:44:31;2.03;;;1.70;;
23129;SDS011;11734;51.046;13.778;2024-02-04T10:47:07;1.73;;;1.63;;
23129;SDS011;11734;51.046;13.778;2024-02-04T10:49:42;2.07;;;1.87;;
23129;SDS011;11734;51.046;13.778;2024-02-04T10:52:17;1.93;;;1.70;;
23129;SDS011;11734;51.046;13.778;2024-02-04T10:54:44;1.93;;;1.73;;
23129;SDS011;11734;51.046;13.778;2024-02-04T10:57:17;2.33;;;2.13;;
23129;SDS011;11734;51.046;13.778;2024-02-04T10:59:49;2.87;;;2.20;;
23129;SDS011;11734;51.046;13.778;2024-02-04T11:02:19;2.20;;;2.00;;
23129;SDS011;11734;51.046;13.778;2024-02-04T11:04:48;3.03;;;1.70;;
23129;SDS011;11734;51.046;13.778;2024-02-04T11:07:18;2.17;;;1.80;;
23129;SDS011;11734;51.046;13.778;2024-02-04T11:09:48;1.73;;;1.63;;
23129;SDS011;11734;51.046;13.778;2024-02-04T11:12:18;2.13;;;1.93;;
23129;SDS011;11734;51.046;13.778;2024-02-04T11:14:48;1.90;;;1.80;;
23129;SDS011;11734;51.046;13.778;2024-02-04T11:23:05;1.10;;;1.10;;
23129;SDS011;11734;51.046;13.778;2024-02-04T11:25:49;1.17;;;1.10;;
23129;SDS011;11734;51.046;13.778;2024-02-04T11:28:22;1.30;;;1.20;;
23129;SDS011;11734;51.046;13.778;2024-02-04T11:30:52;1.30;;;1.20;;
23129;SDS011;11734;51.046;13.778;2024-02-04T11:33:21;1.30;;;1.20;;
23129;SDS011;11734;51.046;13.778;2024-02-04T11:36:05;1.43;;;1.33;;
23129;SDS011;11734;51.046;13.778;2024-02-04T11:38:36;1.50;;;1.40;;
23129;SDS011;11734;51.046;13.778;2024-02-04T11:41:04;1.50;;;1.40;;
23129;SDS011;11734;51.046;13.778;2024-02-04T11:43:33;1.67;;;1.57;;
23129;SDS011;11734;51.046;13.778;2024-02-04T11:46:03;1.90;;;1.80;;
23129;SDS011;11734;51.046;13.778;2024-02-04T11:48:32;1.63;;;1.50;;
23129;SDS011;11734;51.046;13.778;2024-02-04T11:51:02;1.90;;;1.63;;
23129;SDS011;11734;51.046;13.778;2024-02-04T11:53:32;1.90;;;1.80;;
23129;SDS011;11734;51.046;13.778;2024-02-04T11:56:01;1.50;;;1.40;;
23129;SDS011;11734;51.046;13.778;2024-02-04T11:58:29;1.73;;;1.50;;
23129;SDS011;11734;51.046;13.778;2024-02-04T12:00:58;1.80;;;1.70;;
23129;SDS011;11734;51.046;13.778;2024-02-04T12:03:31;2.07;;;1.70;;
23129;SDS011;11734;51.046;13.778;2024-02-04T12:06:00;2.30;;;1.80;;
23129;SDS011;11734;51.046;13.778;2024-02-04T12:08:29;2.20;;;1.77;;
23129;SDS011;11734;51.046;13.778;2024-02-04T12:11:01;1.70;;;1.50;;
23129;SDS011;11734;51.046;13.778;2024-02-04T12:13:29;1.60;;;1.50;;
23129;SDS011;11734;51.046;13.778;2024-02-04T12:15:58;2.00;;;1.80;;
23129;SDS011;11734;51.046;13.778;2024-02-04T12:18:26;1.73;;;1.63;;
23129;SDS011;11734;51.046;13.778;2024-02-04T12:20:54;2.03;;;1.80;;
23129;SDS011;11734;51.046;13.778;2024-02-04T12:23:21;2.17;;;1.97;;
23129;SDS011;11734;51.046;13.778;2024-02-04T12:25:50;2.10;;;1.90;;
23129;SDS011;11734;51.046;13.778;2024-02-04T12:28:17;2.37;;;2.10;;
23129;SDS011;11734;51.046;13.778;2024-02-04T12:30:53;2.10;;;1.90;;
23129;SDS011;11734;51.046;13.778;2024-02-04T12:33:21;2.40;;;1.87;;
23129;SDS011;11734;51.046;13.778;2024-02-04T12:35:52;2.27;;;2.00;;
23129;SDS011;11734;51.046;13.778;2024-02-04T12:38:24;2.20;;;2.00;;
23129;SDS011;11734;51.046;13.778;2024-02-04T12:41:00;2.33;;;2.13;;
23129;SDS011;11734;51.046;13.778;2024-02-04T12:43:29;2.20;;;2.00;;
23129;SDS011;11734;51.046;13.778;2024-02-04T12:45:56;2.73;;;1.90;;
23129;SDS011;11734;51.046;13.778;2024-02-04T12:48:25;2.57;;;1.93;;
23129;SDS011;11734;51.046;13.778;2024-02-04T12:50:54;2.07;;;1.87;;
23129;SDS011;11734;51.046;13.778;2024-02-04T12:53:21;2.10;;;1.87;;
23129;SDS011;11734;51.046;13.778;2024-02-04T12:55:57;1.70;;;1.60;;
23129;SDS011;11734;51.046;13.778;2024-02-04T12:58:25;2.10;;;1.70;;
23129;SDS011;11734;51.046;13.778;2024-02-04T13:01:00;2.37;;;1.93;;
23129;SDS011;11734;51.046;13.778;2024-02-04T13:03:29;2.30;;;1.90;;
23129;SDS011;11734;51.046;13.778;2024-02-04T13:05:57;1.80;;;1.70;;
23129;SDS011;11734;51.046;13.778;2024-02-04T13:08:25;2.57;;;2.10;;
23129;SDS011;11734;51.046;13.778;2024-02-04T13:10:56;2.20;;;2.00;;
23129;SDS011;11734;51.046;13.778;2024-02-04T13:13:24;2.43;;;1.97;;
23129;SDS011;11734;51.046;13.778;2024-02-04T13:15:53;2.20;;;2.00;;
23129;SDS011;11734;51.046;13.778;2024-02-04T13:18:21;2.03;;;1.80;;
23129;SDS011;11734;51.046;13.778;2024-02-04T13:20:48;2.10;;;1.83;;
23129;SDS011;11734;51.046;13.778;2024-02-04T13:23:16;2.10;;;1.90;;
23129;SDS011;11734;51.046;13.778;2024-02-04T13:25:43;2.20;;;1.60;;
23129;SDS011;11734;51.046;13.778;2024-02-04T13:28:12;2.43;;;2.17;;
23129;SDS011;11734;51.046;13.778;2024-02-04T13:30:39;2.07;;;1.97;;
23129;SDS011;11734;51.046;13.778;2024-02-04T13:33:07;1.70;;;1.60;;
23129;SDS011;11734;51.046;13.778;2024-02-04T13:35:35;2.23;;;2.03;;
23129;SDS011;11734;51.046;13.778;2024-02-04T13:38:03;1.93;;;1.73;;
23129;SDS011;11734;51.046;13.778;2024-02-04T13:40:31;1.80;;;1.70;;
23129;SDS011;11734;51.046;13.778;2024-02-04T13:42:59;2.30;;;2.10;;
23129;SDS011;11734;51.046;13.778;2024-02-04T13:45:26;2.10;;;1.90;;
23129;SDS011;11734;51.046;13.778;2024-02-04T13:47:54;2.33;;;2.13;;
23129;SDS011;11734;51.046;13.778;2024-02-04T13:50:22;2.00;;;1.80;;
23129;SDS011;11734;51.046;13.778;2024-02-04T13:52:49;2.20;;;2.00;;
23129;SDS011;11734;51.046;13.778;2024-02-04T13:55:17;2.03;;;1.93;;
23129;SDS011;11734;51.046;13.778;2024-02-04T13:57:44;2.60;;;2.00;;
23129;SDS011;11734;51.046;13.778;2024-02-04T14:00:12;1.73;;;1.63;;
23129;SDS011;11734;51.046;13.778;2024-02-04T14:02:40;1.90;;;1.60;;
23129;SDS011;11734;51.046;13.778;2024-02-04T14:05:07;2.07;;;1.97;;
23129;SDS011;11734;51.046;13.778;2024-02-04T14:07:35;2.00;;;1.90;;
23129;SDS011;11734;51.046;13.778;2024-02-04T14:10:03;2.50;;;1.90;;
23129;SDS011;11734;51.046;13.778;2024-02-04T14:12:30;1.83;;;1.73;;
23129;SDS011;11734;51.046;13.778;2024-02-04T14:14:58;2.03;;;1.87;;
23129;SDS011;11734;51.046;13.778;2024-02-04T14:17:25;1.90;;;1.80;;
23129;SDS011;11734;51.046;13.778;2024-02-04T14:19:53;1.80;;;1.70;;
23129;SDS011;11734;51.046;13.778;2024-02-04T14:22:21;1.93;;;1.83;;
23129;SDS011;11734;51.046;13.778;2024-02-04T14:24:49;2.27;;;2.00;;
23129;SDS011;11734;51.046;13.778;2024-02-04T14:27:16;2.27;;;1.77;;
23129;SDS011;11734;51.046;13.778;2024-02-04T14:29:44;1.53;;;1.43;;
23129;SDS011;11734;51.046;13.778;2024-02-04T14:32:11;2.03;;;1.70;;
23129;SDS011;11734;51.046;13.778;2024-02-04T14:34:39;1.60;;;1.50;;
23129;SDS011;11734;51.046;13.778;2024-02-04T14:37:06;1.90;;;1.70;;
23129;SDS011;11734;51.046;13.778;2024-02-04T14:39:38;1.67;;;1.57;;
23129;SDS011;11734;51.046;13.778;2024-02-04T14:42:10;1.77;;;1.67;;
23129;SDS011;11734;51.046;13.778;2024-02-04T14:44:37;2.17;;;1.63;;
23129;SDS011;11734;51.046;13.778;2024-02-04T14:47:05;1.63;;;1.53;;